createdAt,value
2018-05-03T00:00:14.001Z,13.10
2018-05-03T00:02:42.313Z,12.98
2018-05-03T00:05:10.789Z,13.04
2018-05-03T00:07:39.113Z,13.03
2018-05-03T00:10:07.435Z,13.09
2018-05-03T00:12:35.762Z,13.03
2018-05-03T00:15:04.097Z,12.94
2018-05-03T00:17:32.428Z,12.91
2018-05-03T00:20:00.736Z,12.88
2018-05-03T00:22:29.085Z,12.89
2018-05-03T00:24:57.405Z,12.82
2018-05-03T00:27:25.785Z,12.80
2018-05-03T00:29:54.203Z,12.76
2018-05-03T00:32:22.526Z,12.77
2018-05-03T00:34:50.837Z,12.74
2018-05-03T00:37:19.207Z,12.78
2018-05-03T00:39:47.608Z,12.77
2018-05-03T00:42:15.933Z,12.90
2018-05-03T00:44:44.237Z,12.89
2018-05-03T00:47:12.605Z,12.94
2018-05-03T00:49:40.924Z,12.92
2018-05-03T00:52:09.262Z,12.84
2018-05-03T00:54:49.345Z,12.79
2018-05-03T00:57:17.734Z,12.79
2018-05-03T00:59:46.111Z,12.73
2018-05-03T01:02:14.437Z,12.75
2018-05-03T01:04:42.755Z,12.78
2018-05-03T01:07:11.144Z,12.72
2018-05-03T01:09:39.451Z,12.80
2018-05-03T01:12:07.853Z,12.75
2018-05-03T01:14:36.198Z,12.74
2018-05-03T01:17:04.508Z,12.73
2018-05-03T01:19:32.896Z,12.69
2018-05-03T01:22:01.273Z,12.59
2018-05-03T01:24:29.644Z,12.61
2018-05-03T01:26:57.964Z,12.74
2018-05-03T01:29:26.399Z,12.70
2018-05-03T01:31:54.725Z,12.72
2018-05-03T01:34:23.060Z,12.51
2018-05-03T01:36:51.452Z,12.56
2018-05-03T01:39:19.788Z,12.58
2018-05-03T01:41:48.121Z,12.60
2018-05-03T01:44:16.453Z,12.48
2018-05-03T01:46:44.845Z,12.48
2018-05-03T01:49:13.236Z,12.48
2018-05-03T01:51:41.542Z,12.45
2018-05-03T01:54:09.840Z,12.42
2018-05-03T01:56:38.253Z,12.43
2018-05-03T01:59:06.683Z,12.39
2018-05-03T02:01:35.009Z,12.32
2018-05-03T02:04:03.406Z,12.28
2018-05-03T02:06:31.728Z,12.41
2018-05-03T02:09:00.047Z,12.38
2018-05-03T02:11:28.394Z,12.52
2018-05-03T02:13:56.800Z,12.30
2018-05-03T02:16:25.209Z,12.27
2018-05-03T02:18:53.571Z,12.23
2018-05-03T02:21:22.026Z,12.20
2018-05-03T02:23:50.341Z,12.28
2018-05-03T02:26:18.742Z,12.27
2018-05-03T02:28:47.109Z,12.35
2018-05-03T02:31:15.515Z,12.17
2018-05-03T02:33:43.837Z,12.14
2018-05-03T02:36:12.185Z,12.21
2018-05-03T02:38:40.634Z,12.16
2018-05-03T02:41:08.937Z,12.10
2018-05-03T02:43:37.265Z,12.22
2018-05-03T02:46:05.581Z,12.15
2018-05-03T02:48:33.999Z,12.19
2018-05-03T02:51:02.393Z,12.31
2018-05-03T02:53:30.764Z,12.11
2018-05-03T02:55:59.072Z,12.22
2018-05-03T02:58:39.296Z,12.18
2018-05-03T03:01:25.297Z,12.24
2018-05-03T03:04:11.027Z,12.25
2018-05-03T03:10:34.915Z,12.30
2018-05-03T03:16:53.451Z,12.37
2018-05-03T03:23:08.324Z,12.40
2018-05-03T03:29:32.911Z,12.33
2018-05-03T03:32:15.133Z,12.34
2018-05-03T03:34:43.529Z,12.32
2018-05-03T03:37:32.596Z,12.49
2018-05-03T03:40:18.305Z,12.46
2018-05-03T03:45:44.215Z,12.43
2018-05-03T03:48:12.589Z,12.38
2018-05-03T03:50:40.908Z,12.36
2018-05-03T03:53:09.272Z,12.49
2018-05-03T03:55:37.550Z,12.56
2018-05-03T03:58:05.885Z,12.48
2018-05-03T04:00:34.275Z,12.51
2018-05-03T04:03:02.580Z,12.37
2018-05-03T04:05:30.927Z,12.31
2018-05-03T04:07:59.309Z,12.34
2018-05-03T04:10:27.681Z,12.23
2018-05-03T04:12:55.992Z,12.36
2018-05-03T04:15:24.395Z,12.40
2018-05-03T04:18:04.808Z,12.42
2018-05-03T04:20:46.570Z,12.26
2018-05-03T04:23:37.272Z,12.25
2018-05-03T04:26:05.608Z,12.27
2018-05-03T04:28:33.982Z,12.34
2018-05-03T04:31:02.374Z,12.27
2018-05-03T04:33:30.683Z,12.24
2018-05-03T04:35:59.017Z,12.30
2018-05-03T04:38:27.382Z,12.22
2018-05-03T04:40:55.716Z,12.22
2018-05-03T04:43:24.019Z,12.27
2018-05-03T04:45:52.429Z,12.27
2018-05-03T04:48:20.777Z,12.25
2018-05-03T04:50:49.131Z,12.30
2018-05-03T04:53:17.528Z,12.42
2018-05-03T04:55:45.868Z,12.43
2018-05-03T04:58:14.228Z,12.40
2018-05-03T05:00:42.529Z,12.50
2018-05-03T05:03:10.939Z,12.33
2018-05-03T05:05:39.251Z,12.45
2018-05-03T05:08:07.660Z,12.40
2018-05-03T05:10:35.983Z,12.53
2018-05-03T05:13:04.307Z,12.49
2018-05-03T05:15:32.629Z,12.45
2018-05-03T05:18:01.084Z,12.58
2018-05-03T05:20:29.380Z,12.55
2018-05-03T05:22:57.719Z,12.55
2018-05-03T05:25:26.032Z,12.60
2018-05-03T05:27:54.380Z,12.67
2018-05-03T05:30:22.713Z,12.71
2018-05-03T05:32:51.048Z,12.64
2018-05-03T05:35:19.460Z,12.79
2018-05-03T05:37:48.508Z,12.85
2018-05-03T05:40:16.836Z,12.92
2018-05-03T05:42:45.256Z,12.88
2018-05-03T05:45:13.554Z,12.89
2018-05-03T05:47:41.855Z,12.99
2018-05-03T05:50:10.192Z,12.87
2018-05-03T05:52:38.492Z,12.93
2018-05-03T05:55:06.835Z,12.94
2018-05-03T05:57:35.207Z,12.89
2018-05-03T06:00:03.557Z,12.94
2018-05-03T06:02:31.873Z,12.91
2018-05-03T06:05:00.217Z,13.09
2018-05-03T06:07:28.584Z,12.94
2018-05-03T06:09:56.963Z,12.97
2018-05-03T06:12:25.289Z,13.08
2018-05-03T06:14:53.713Z,13.24
2018-05-03T06:17:22.023Z,13.15
2018-05-03T06:19:50.478Z,13.20
2018-05-03T06:22:18.853Z,13.28
2018-05-03T06:24:47.184Z,13.46
2018-05-03T06:27:15.490Z,13.20
2018-05-03T06:29:43.890Z,13.23
2018-05-03T06:32:12.194Z,13.26
2018-05-03T06:34:40.534Z,13.04
2018-05-03T06:37:08.956Z,13.21
2018-05-03T06:39:37.385Z,13.25
2018-05-03T06:42:05.697Z,13.14
2018-05-03T06:44:34.013Z,13.46
2018-05-03T06:47:02.422Z,13.69
2018-05-03T06:49:30.728Z,13.53
2018-05-03T06:51:59.056Z,13.26
2018-05-03T06:54:27.368Z,13.62
2018-05-03T06:56:55.725Z,13.69
2018-05-03T06:59:24.046Z,13.84
2018-05-03T07:01:52.384Z,13.94
2018-05-03T07:04:20.871Z,14.09
2018-05-03T07:06:49.112Z,13.63
2018-05-03T07:09:17.413Z,13.58
2018-05-03T07:11:45.749Z,13.71
2018-05-03T07:14:14.062Z,13.79
2018-05-03T07:16:42.493Z,14.09
2018-05-03T07:19:10.797Z,14.00
2018-05-03T07:21:39.207Z,14.11
2018-05-03T07:24:07.546Z,14.25
2018-05-03T07:26:35.894Z,13.93
2018-05-03T07:29:04.205Z,14.18
2018-05-03T07:31:32.573Z,14.78
2018-05-03T07:34:00.881Z,15.07
2018-05-03T07:36:29.324Z,15.23
2018-05-03T07:38:57.656Z,15.10
2018-05-03T07:41:25.988Z,15.20
2018-05-03T07:43:54.402Z,15.32
2018-05-03T07:46:22.794Z,15.02
2018-05-03T07:48:51.102Z,15.00
2018-05-03T07:51:19.463Z,14.99
2018-05-03T07:53:47.832Z,15.14
2018-05-03T07:56:16.194Z,15.19
2018-05-03T07:58:44.590Z,14.57
2018-05-03T08:01:12.895Z,14.74
2018-05-03T08:03:41.223Z,14.81
2018-05-03T08:06:09.608Z,15.17
2018-05-03T08:08:37.939Z,14.81
2018-05-03T08:11:06.251Z,15.16
2018-05-03T08:13:34.585Z,15.15
2018-05-03T08:16:02.897Z,15.48
2018-05-03T08:18:31.221Z,15.77
2018-05-03T08:20:59.573Z,16.08
2018-05-03T08:23:27.993Z,15.75
2018-05-03T08:25:56.284Z,15.98
2018-05-03T08:28:24.633Z,15.87
2018-05-03T08:30:52.948Z,15.99
2018-05-03T08:33:21.293Z,15.51
2018-05-03T08:35:49.606Z,16.23
2018-05-03T08:38:17.936Z,16.44
2018-05-03T08:40:46.250Z,16.44
2018-05-03T08:43:14.560Z,16.29
2018-05-03T08:45:42.974Z,16.11
2018-05-03T08:48:11.291Z,16.31
2018-05-03T08:50:39.621Z,16.16
2018-05-03T08:53:07.942Z,16.62
2018-05-03T08:55:36.381Z,16.76
2018-05-03T08:58:04.679Z,16.64
2018-05-03T09:00:33.113Z,16.72
2018-05-03T09:03:01.427Z,16.85
2018-05-03T09:05:29.764Z,16.36
2018-05-03T09:07:58.148Z,16.57
2018-05-03T09:10:26.524Z,17.05
2018-05-03T09:12:54.838Z,17.13
2018-05-03T09:15:23.180Z,17.98
2018-05-03T09:17:51.492Z,17.56
2018-05-03T09:20:19.838Z,17.24
2018-05-03T09:22:48.150Z,16.70
2018-05-03T09:25:16.485Z,17.21
2018-05-03T09:27:44.852Z,17.19
2018-05-03T09:30:13.189Z,17.36
2018-05-03T09:32:41.517Z,17.60
2018-05-03T09:35:09.856Z,17.70
2018-05-03T09:37:38.181Z,17.35
2018-05-03T09:40:06.497Z,17.29
2018-05-03T09:42:35.739Z,17.49
2018-05-03T09:45:04.052Z,17.41
2018-05-03T09:47:32.386Z,17.23
2018-05-03T09:50:00.782Z,17.05
2018-05-03T09:52:29.123Z,17.27
2018-05-03T09:54:57.437Z,17.62
2018-05-03T09:57:25.822Z,17.51
2018-05-03T09:59:54.133Z,18.14
2018-05-03T10:02:22.566Z,17.52
2018-05-03T10:04:50.919Z,17.46
2018-05-03T10:07:19.221Z,18.14
2018-05-03T10:09:47.541Z,18.42
2018-05-03T10:12:15.975Z,18.12
2018-05-03T10:14:44.285Z,18.76
2018-05-03T10:17:12.629Z,18.82
2018-05-03T10:19:40.993Z,18.83
2018-05-03T10:22:09.333Z,18.58
2018-05-03T10:24:37.627Z,18.65
2018-05-03T10:27:05.978Z,18.41
2018-05-03T10:29:34.279Z,18.45
2018-05-03T10:32:02.589Z,18.48
2018-05-03T10:34:30.998Z,18.66
2018-05-03T10:36:59.298Z,18.62
2018-05-03T10:39:27.748Z,18.65
2018-05-03T10:41:56.129Z,18.64
2018-05-03T10:44:24.396Z,18.40
2018-05-03T10:46:52.722Z,18.37
2018-05-03T10:49:21.150Z,18.73
2018-05-03T10:51:49.461Z,18.52
2018-05-03T10:54:17.793Z,18.62
2018-05-03T10:56:46.112Z,17.96
2018-05-03T10:59:14.460Z,18.21
2018-05-03T11:01:42.769Z,18.95
2018-05-03T11:04:11.117Z,19.35
2018-05-03T11:06:39.435Z,19.16
2018-05-03T11:09:07.865Z,19.77
2018-05-03T11:11:36.250Z,19.87
2018-05-03T11:14:04.630Z,20.09
2018-05-03T11:16:32.953Z,19.36
2018-05-03T11:19:01.277Z,20.16
2018-05-03T11:21:29.627Z,20.41
2018-05-03T11:23:57.948Z,20.50
2018-05-03T11:26:26.353Z,20.36
2018-05-03T11:28:54.646Z,20.06
2018-05-03T11:31:23.133Z,19.94
2018-05-03T11:33:51.452Z,20.51
2018-05-03T11:36:19.827Z,20.50
2018-05-03T11:38:48.154Z,20.66
2018-05-03T11:41:16.476Z,20.40
2018-05-03T11:43:45.000Z,20.25
2018-05-03T11:46:14.253Z,20.48
2018-05-03T11:48:42.652Z,20.40
2018-05-03T11:51:11.013Z,20.23
2018-05-03T11:53:39.402Z,19.90
2018-05-03T11:56:07.701Z,19.87
2018-05-03T11:58:36.009Z,20.01
2018-05-03T12:01:04.371Z,20.12
2018-05-03T12:03:32.671Z,20.39
2018-05-03T12:06:01.059Z,20.17
2018-05-03T12:08:29.320Z,20.01
2018-05-03T12:10:57.631Z,19.85
2018-05-03T12:13:25.960Z,19.65
2018-05-03T12:15:54.436Z,20.09
2018-05-03T12:18:22.740Z,19.27
2018-05-03T12:20:51.090Z,19.63
2018-05-03T12:23:19.411Z,19.66
2018-05-03T12:25:47.729Z,19.66
2018-05-03T12:28:16.123Z,19.59
2018-05-03T12:30:44.435Z,19.73
2018-05-03T12:33:12.741Z,20.12
2018-05-03T12:35:41.131Z,20.12
2018-05-03T12:38:09.457Z,20.30
2018-05-03T12:40:37.771Z,20.33
2018-05-03T12:43:06.150Z,20.64
2018-05-03T12:45:34.521Z,20.74
2018-05-03T12:48:02.900Z,20.33
2018-05-03T12:50:31.248Z,20.49
2018-05-03T12:52:59.574Z,20.16
2018-05-03T12:55:27.934Z,20.17
2018-05-03T12:57:56.239Z,20.48
2018-05-03T13:00:24.591Z,20.88
2018-05-03T13:02:52.965Z,20.56
2018-05-03T13:05:21.282Z,20.31
2018-05-03T13:07:49.604Z,20.31
2018-05-03T13:10:17.925Z,20.23
2018-05-03T13:12:46.268Z,20.27
2018-05-03T13:15:14.589Z,20.05
2018-05-03T13:17:42.889Z,19.72
2018-05-03T13:20:11.268Z,19.89
2018-05-03T13:22:39.512Z,19.72
2018-05-03T13:25:07.853Z,19.95
2018-05-03T13:27:36.228Z,19.85
2018-05-03T13:30:04.560Z,19.59
2018-05-03T13:32:32.889Z,19.63
2018-05-03T13:35:01.196Z,19.63
2018-05-03T13:37:30.440Z,19.28
2018-05-03T13:39:58.770Z,19.16
2018-05-03T13:42:27.999Z,19.46
2018-05-03T13:44:56.311Z,19.83
2018-05-03T13:47:24.670Z,20.38
2018-05-03T13:49:52.966Z,20.21
2018-05-03T13:52:21.354Z,20.79
2018-05-03T13:54:49.666Z,22.50
2018-05-03T13:57:17.970Z,23.34
2018-05-03T13:59:46.303Z,23.37
2018-05-03T14:02:14.660Z,22.48
2018-05-03T14:04:43.045Z,21.61
2018-05-03T14:07:11.535Z,21.73
2018-05-03T14:09:39.689Z,21.61
2018-05-03T14:12:08.008Z,21.66
2018-05-03T14:14:36.387Z,21.94
2018-05-03T14:17:04.682Z,22.29
2018-05-03T14:19:32.996Z,22.16
2018-05-03T14:22:01.381Z,23.63
2018-05-03T14:24:29.694Z,25.37
2018-05-03T14:26:58.028Z,26.07
2018-05-03T14:29:26.361Z,26.30
2018-05-03T14:31:54.666Z,26.25
2018-05-03T14:34:23.058Z,26.81
2018-05-03T14:36:51.453Z,26.87
2018-05-03T14:39:19.753Z,27.23
2018-05-03T14:41:48.068Z,27.56
2018-05-03T14:44:16.405Z,27.65
2018-05-03T14:46:44.721Z,27.29
2018-05-03T14:49:13.142Z,27.21
2018-05-03T14:51:41.468Z,26.92
2018-05-03T14:54:09.829Z,26.61
2018-05-03T14:56:38.138Z,25.82
2018-05-03T14:59:06.583Z,25.04
2018-05-03T15:01:34.889Z,23.66
2018-05-03T15:04:03.237Z,22.28
2018-05-03T15:06:31.612Z,21.98
2018-05-03T15:08:59.865Z,21.47
2018-05-03T15:11:28.220Z,21.40
2018-05-03T15:13:56.608Z,20.91
2018-05-03T15:16:24.943Z,20.70
2018-05-03T15:18:53.226Z,20.59
2018-05-03T15:21:21.640Z,20.39
2018-05-03T15:23:49.963Z,20.01
2018-05-03T15:26:18.335Z,19.97
2018-05-03T15:28:46.642Z,19.89
2018-05-03T15:31:14.962Z,19.95
2018-05-03T15:33:43.341Z,19.93
2018-05-03T15:36:11.597Z,19.77
2018-05-03T15:38:39.908Z,19.69
2018-05-03T15:41:08.276Z,19.59
2018-05-03T15:43:36.638Z,19.49
2018-05-03T15:46:04.982Z,19.40
2018-05-03T15:48:33.365Z,19.15
2018-05-03T15:51:01.698Z,19.20
2018-05-03T15:53:30.012Z,19.12
2018-05-03T15:55:58.426Z,19.00
2018-05-03T15:58:26.845Z,19.01
2018-05-03T16:00:55.181Z,19.10
2018-05-03T16:03:23.513Z,19.06
2018-05-03T16:05:51.943Z,18.92
2018-05-03T16:08:20.260Z,18.93
2018-05-03T16:10:48.593Z,19.07
2018-05-03T16:13:16.925Z,19.10
2018-05-03T16:15:45.261Z,19.04
2018-05-03T16:18:13.577Z,18.96
2018-05-03T16:20:42.047Z,19.05
2018-05-03T16:23:10.421Z,19.10
2018-05-03T16:25:38.742Z,18.82
2018-05-03T16:28:07.280Z,18.97
2018-05-03T16:30:35.587Z,18.89
2018-05-03T16:33:03.904Z,18.88
2018-05-03T16:35:32.416Z,18.85
2018-05-03T16:38:00.753Z,18.80
2018-05-03T16:40:29.173Z,18.71
2018-05-03T16:42:57.509Z,18.68
2018-05-03T16:45:25.838Z,18.73
2018-05-03T16:47:54.155Z,18.70
2018-05-03T16:50:22.583Z,18.62
2018-05-03T16:52:50.880Z,18.64
2018-05-03T16:55:19.292Z,18.52
2018-05-03T16:57:48.203Z,18.41
2018-05-03T17:00:16.521Z,18.51
2018-05-03T17:02:44.842Z,18.48
2018-05-03T17:05:13.176Z,18.35
2018-05-03T17:07:41.494Z,18.59
2018-05-03T17:10:09.810Z,18.59
2018-05-03T17:12:38.150Z,18.51
2018-05-03T17:15:06.466Z,18.51
2018-05-03T17:17:34.789Z,18.46
2018-05-03T17:20:03.201Z,18.32
2018-05-03T17:22:31.561Z,18.28
2018-05-03T17:24:59.885Z,18.30
2018-05-03T17:27:28.217Z,18.22
2018-05-03T17:29:56.537Z,18.18
2018-05-03T17:32:24.851Z,18.25
2018-05-03T17:34:53.171Z,18.31
2018-05-03T17:37:21.529Z,18.24
2018-05-03T17:39:49.848Z,18.28
2018-05-03T17:42:18.179Z,18.11
2018-05-03T17:44:46.556Z,18.10
2018-05-03T17:47:14.934Z,18.06
2018-05-03T17:49:43.262Z,17.96
2018-05-03T17:52:11.598Z,17.93
2018-05-03T17:54:39.945Z,17.97
2018-05-03T17:57:08.365Z,17.87
2018-05-03T17:59:36.689Z,17.89
2018-05-03T18:02:05.005Z,17.64
2018-05-03T18:04:33.434Z,17.65
2018-05-03T18:07:01.803Z,17.69
2018-05-03T18:09:30.105Z,17.54
2018-05-03T18:11:58.437Z,17.51
2018-05-03T18:14:26.767Z,17.52
2018-05-03T18:16:55.085Z,17.42
2018-05-03T18:19:23.413Z,17.32
2018-05-03T18:21:51.722Z,17.31
2018-05-03T18:24:20.033Z,17.25
2018-05-03T18:26:48.368Z,17.13
2018-05-03T18:29:16.690Z,17.12
2018-05-03T18:31:45.024Z,17.10
2018-05-03T18:34:13.369Z,17.06
2018-05-03T18:36:41.678Z,17.03
2018-05-03T18:39:09.997Z,17.01
2018-05-03T18:41:38.386Z,16.90
2018-05-03T18:44:06.747Z,16.85
2018-05-03T18:46:35.015Z,16.83
2018-05-03T18:49:03.276Z,16.81
2018-05-03T18:51:31.597Z,16.71
2018-05-03T18:53:59.921Z,16.73
2018-05-03T18:56:28.408Z,16.71
2018-05-03T18:58:56.708Z,16.70
2018-05-03T19:01:25.062Z,16.76
2018-05-03T19:03:53.416Z,16.74
2018-05-03T19:06:21.816Z,16.70
2018-05-03T19:08:50.298Z,16.59
2018-05-03T19:11:18.616Z,16.61
2018-05-03T19:13:46.925Z,16.63
2018-05-03T19:16:15.337Z,16.56
2018-05-03T19:18:43.713Z,16.51
2018-05-03T19:21:12.083Z,16.56
2018-05-03T19:23:40.414Z,16.59
2018-05-03T19:26:08.718Z,16.60
2018-05-03T19:28:37.113Z,16.61
2018-05-03T19:31:05.501Z,16.61
2018-05-03T19:33:33.821Z,16.62
2018-05-03T19:36:02.152Z,16.64
2018-05-03T19:38:30.525Z,16.63
2018-05-03T19:40:58.882Z,16.62
2018-05-03T19:43:27.267Z,16.54
2018-05-03T19:45:55.569Z,16.53
2018-05-03T19:48:23.939Z,16.53
2018-05-03T19:50:52.321Z,16.50
2018-05-03T19:53:20.633Z,16.48
2018-05-03T19:55:49.018Z,16.41
2018-05-03T19:58:17.322Z,16.46
2018-05-03T20:00:45.626Z,16.51
2018-05-03T20:03:13.957Z,16.49
2018-05-03T20:05:42.277Z,16.45
2018-05-03T20:08:10.663Z,16.36
2018-05-03T20:10:38.985Z,16.44
2018-05-03T20:13:07.287Z,16.43
2018-05-03T20:15:35.701Z,16.34
2018-05-03T20:18:04.045Z,16.32
2018-05-03T20:20:32.449Z,16.25
2018-05-03T20:23:00.766Z,16.35
2018-05-03T20:25:29.085Z,16.34
2018-05-03T20:27:57.428Z,16.37
2018-05-03T20:30:25.757Z,16.34
2018-05-03T20:32:54.270Z,16.34
2018-05-03T20:35:22.452Z,16.35
2018-05-03T20:37:50.794Z,16.31
2018-05-03T20:40:19.172Z,16.29
2018-05-03T20:42:47.558Z,16.32
2018-05-03T20:45:15.863Z,16.25
2018-05-03T20:47:44.201Z,16.21
2018-05-03T20:50:12.527Z,16.22
2018-05-03T20:52:40.833Z,16.17
2018-05-03T20:55:09.148Z,16.15
2018-05-03T20:57:37.516Z,16.18
2018-05-03T21:00:05.800Z,16.20
2018-05-03T21:02:34.124Z,16.18
2018-05-03T21:05:02.464Z,16.17
2018-05-03T21:07:30.782Z,16.17
2018-05-03T21:09:59.192Z,16.16
2018-05-03T21:12:27.515Z,16.08
2018-05-03T21:14:55.858Z,16.10
2018-05-03T21:17:24.173Z,16.07
2018-05-03T21:19:52.535Z,16.16
2018-05-03T21:22:20.849Z,16.10
2018-05-03T21:24:49.190Z,16.05
2018-05-03T21:27:17.503Z,16.11
2018-05-03T21:29:45.818Z,16.10
2018-05-03T21:32:14.266Z,16.01
2018-05-03T21:34:42.604Z,16.03
2018-05-03T21:37:10.938Z,16.04
2018-05-03T21:39:39.343Z,16.07
2018-05-03T21:42:07.657Z,16.04
2018-05-03T21:44:35.997Z,15.92
2018-05-03T21:47:04.330Z,15.86
2018-05-03T21:49:32.734Z,15.89
2018-05-03T21:52:01.138Z,15.88
2018-05-03T21:54:29.457Z,15.83
2018-05-03T21:56:57.773Z,15.76
2018-05-03T21:59:26.089Z,15.60
2018-05-03T22:01:54.431Z,15.58
2018-05-03T22:04:22.729Z,15.55
2018-05-03T22:06:51.080Z,15.58
2018-05-03T22:09:19.469Z,15.46
2018-05-03T22:11:47.837Z,15.49
2018-05-03T22:14:16.217Z,15.42
2018-05-03T22:16:44.529Z,15.42
2018-05-03T22:19:12.865Z,15.48
2018-05-03T22:21:41.181Z,15.28
2018-05-03T22:24:09.516Z,15.37
2018-05-03T22:26:37.824Z,15.38
2018-05-03T22:29:06.137Z,15.33
2018-05-03T22:31:34.456Z,15.35
2018-05-03T22:34:02.772Z,15.25
2018-05-03T22:36:31.109Z,15.27
2018-05-03T22:38:59.490Z,15.24
2018-05-03T22:43:58.017Z,15.39
2018-05-03T22:46:26.337Z,15.21
2018-05-03T22:48:54.665Z,15.25
2018-05-03T22:51:22.967Z,15.25
2018-05-03T22:53:51.390Z,15.31
2018-05-03T22:56:19.772Z,15.27
2018-05-03T22:58:48.153Z,15.23
2018-05-03T23:01:16.546Z,15.32
2018-05-03T23:03:44.853Z,15.16
2018-05-03T23:06:13.175Z,15.23
2018-05-03T23:08:41.552Z,15.13
2018-05-03T23:11:09.860Z,15.13
2018-05-03T23:13:38.168Z,15.07
2018-05-03T23:16:06.534Z,15.00
2018-05-03T23:18:34.858Z,14.99
2018-05-03T23:21:03.166Z,15.01
2018-05-03T23:23:31.506Z,15.10
2018-05-03T23:25:59.819Z,15.01
2018-05-03T23:28:28.173Z,15.08
2018-05-03T23:30:56.568Z,15.08
2018-05-03T23:33:24.893Z,15.00
2018-05-03T23:35:53.223Z,14.91
2018-05-03T23:38:21.575Z,14.80
2018-05-03T23:40:49.892Z,14.79
2018-05-03T23:43:18.260Z,14.77
2018-05-03T23:45:46.592Z,14.78
2018-05-03T23:48:14.905Z,14.74
2018-05-03T23:50:43.224Z,14.68
2018-05-03T23:53:11.555Z,14.68
2018-05-03T23:55:39.934Z,14.59
2018-05-03T23:58:08.246Z,14.60
